CheckWX is a tool to help pilots better visualize weather data.  It is not intended as a substitute for an official pre-flight weather briefing.

20:44:13 UTC

KUES METAR
Waukesha County Airport
Waukesha, Wisconsin, USA
Current

59 mins ago

KUES 311945Z 28006KT 10SM SKC 19/04 A3030
Observed
May-31 @ 19:45 UTC
Wind
  • 280° at 6 KTS
Visibility
Flight Rules
VFR
Cloud Levels
  • Clear skies
Temperature
19°C / 66°F
Dewpoint
C / 39°F
Humidity
37%
Altimeter
30.3" Hg
Pressure
1026.12 hPa
Previous

2 hours ago

KUES 311845Z 34006KT 10SM SKC 18/04 A3033
Observed
May-31 @ 18:45 UTC
Wind
  • 340° at 6 KTS
Visibility
Flight Rules
VFR
Cloud Levels
  • Clear skies
Temperature
18°C / 64°F
Dewpoint
C / 39°F
Humidity
40%
Altimeter
30.33" Hg
Pressure
1027.12 hPa
Previous

3 hours ago

KUES 311745Z 24007KT 10SM SKC 16/03 A3035
Observed
May-31 @ 17:45 UTC
Wind
  • 240° at 7 KTS
Visibility
Flight Rules
VFR
Cloud Levels
  • Clear skies
Temperature
16°C / 61°F
Dewpoint
C / 37°F
Humidity
42%
Altimeter
30.35" Hg
Pressure
1027.82 hPa